マニラ/ニノイ・アキノ の空港の天気 - METARとTAF

ニノイ・アキノ国際空港 ( RPLL / MNL ) - フィリピン マニラ
飛行場実況気象(Metar)
観測時間04/26 00:00 +08 (04/25 16:00 UTC)
風向・風速東 3m/s
視程10km以上
天気現象
少しの雲 雲底高度 760m
気温28℃
湿度74%
気圧1011hPa
METARRPLL 251600Z 10005KT 060V150 9999 FEW025 28/23 Q1011 NOSIG RMK A2985
過去の天気等 Google飛行場航空写真 Wunderground天気予報

過去48時間のMETAR

飛行場予報(TAF)
発表時間: 4/25 19:00 +08 (4/25 11:00 UTC)
予報対象時間: 25日20時 +08 ~ 27日2時 +08
風向・風速東南東 4m/s
視程10km以上
少しの雲 雲底高度 760m
全天の4割程度の雲 雲底高度 9,140m
25日20時 +08 ~ 26日2時 +08 に一時的に
風向・風速南東 5m/s
少しの雲 雲底高度 760m
26日2時 +08 ~ 26日8時 +08 に一時的に
風向・風速東南東 3m/s
少しの雲 雲底高度 760m
全天の4割程度の雲 雲底高度 3,050m
TAF RPLL 251100Z 2512/2618 12008KT 9999 FEW025 SCT300 TX35/2606Z TN26/2522Z
TEMPO 2512/2518 13010KT FEW025
TEMPO 2518/2524 11006KT FEW025 SCT100